Terminal Aerodrome Forecast
Issued by NWS

Home | Current Version | Previous Version | Text Only | Print | Product List | Glossary On
Versions: 1 2 3 4 5 6 7 8 9 10 11 12 13 14 15 16 17 18 19 20 21 22 23 24 25 26 27
000
FTUS41 KCTP 300927 AAA
TAFJST
TAF AMD
KJST 300927Z 3009/3106 10008KT P6SM BKN050 OVC120
     FM301500 14009G15KT P6SM OVC035
     FM301900 14009G15KT 6SM -SHRA OVC025
     FM302200 15012G24KT 2SM -RA BR OVC015 WS020/17035KT=

USA.gov is the U.S. government's official web portal to all federal, state and local government web resources and services.